createdAt,value
2023-07-02T00:01:50.774Z,3.78
2023-07-02T00:04:17.717Z,2.90
2023-07-02T00:06:46.176Z,3.63
2023-07-02T00:09:13.733Z,4.22
2023-07-02T00:11:42.266Z,3.80
2023-07-02T00:14:09.678Z,4.13
2023-07-02T00:16:36.695Z,3.42
2023-07-02T00:19:03.263Z,4.07
2023-07-02T00:21:29.863Z,5.28
2023-07-02T00:23:59.226Z,3.35
2023-07-02T00:26:26.149Z,5.35
2023-07-02T00:28:54.872Z,3.67
2023-07-02T00:31:21.686Z,3.33
2023-07-02T00:33:49.051Z,3.22
2023-07-02T00:36:15.633Z,3.50
2023-07-02T00:38:42.884Z,5.25
2023-07-02T00:41:10.928Z,4.63
2023-07-02T00:43:37.652Z,4.82
2023-07-02T00:46:05.043Z,4.28
2023-07-02T00:48:31.929Z,5.53
2023-07-02T00:50:58.606Z,5.05
2023-07-02T00:53:25.304Z,5.90
2023-07-02T00:55:51.859Z,4.28
2023-07-02T00:58:19.827Z,6.30
2023-07-02T01:00:46.635Z,5.45
2023-07-02T01:03:13.462Z,6.50
2023-07-02T01:05:40.100Z,4.85
2023-07-02T01:08:06.963Z,6.07
2023-07-02T01:10:34.056Z,6.13
2023-07-02T01:13:03.503Z,4.32
2023-07-02T01:15:32.676Z,5.68
2023-07-02T01:17:59.798Z,6.40
2023-07-02T01:20:28.246Z,4.88
2023-07-02T01:22:54.920Z,7.10
2023-07-02T01:25:21.624Z,5.53
2023-07-02T01:27:48.378Z,6.95
2023-07-02T01:30:14.967Z,5.35
2023-07-02T01:32:41.624Z,4.55
2023-07-02T01:35:09.546Z,6.50
2023-07-02T01:37:37.597Z,3.80
2023-07-02T01:40:04.688Z,6.85
2023-07-02T01:42:31.281Z,5.93
2023-07-02T01:44:58.027Z,7.57
2023-07-02T01:47:24.626Z,7.43
2023-07-02T01:49:51.504Z,7.40
2023-07-02T01:52:18.314Z,6.03
2023-07-02T01:54:46.360Z,6.55
2023-07-02T01:57:12.959Z,8.02
2023-07-02T01:59:39.617Z,7.10
2023-07-02T02:02:06.232Z,7.45
2023-07-02T02:04:36.500Z,10.77
2023-07-02T02:07:03.482Z,5.13
2023-07-02T02:09:30.082Z,6.60
2023-07-02T02:11:57.974Z,9.45
2023-07-02T02:14:24.767Z,10.10
2023-07-02T02:16:51.943Z,8.32
2023-07-02T02:19:18.550Z,8.98
2023-07-02T02:21:45.206Z,11.18
2023-07-02T02:24:12.086Z,7.90
2023-07-02T02:26:38.816Z,7.13
2023-07-02T02:29:06.842Z,6.80
2023-07-02T02:31:33.578Z,10.00
2023-07-02T02:34:01.245Z,8.27
2023-07-02T02:36:27.902Z,6.45
2023-07-02T02:38:55.175Z,7.68
2023-07-02T02:41:21.964Z,10.48
2023-07-02T02:43:51.927Z,8.65
2023-07-02T02:46:24.435Z,7.07
2023-07-02T02:48:52.345Z,7.47
2023-07-02T02:51:18.991Z,9.93
2023-07-02T02:53:45.639Z,7.88
2023-07-02T02:56:12.270Z,7.32
2023-07-02T02:58:38.900Z,7.70
2023-07-02T03:01:05.492Z,7.57
2023-07-02T03:03:33.509Z,7.65
2023-07-02T03:06:00.201Z,8.52
2023-07-02T03:08:26.821Z,12.52
2023-07-02T03:10:53.407Z,10.40
2023-07-02T03:13:20.064Z,8.55
2023-07-02T03:15:46.699Z,6.40
2023-07-02T03:18:13.307Z,7.55
2023-07-02T03:20:41.704Z,6.53
2023-07-02T03:25:35.778Z,7.60
2023-07-02T03:28:02.394Z,8.27
2023-07-02T03:30:28.978Z,11.43
2023-07-02T03:32:55.894Z,9.38
2023-07-02T03:35:22.520Z,6.65
2023-07-02T03:37:50.481Z,7.82
2023-07-02T03:40:17.245Z,10.50
2023-07-02T03:42:44.391Z,7.25
2023-07-02T03:45:11.378Z,9.27
2023-07-02T03:47:38.049Z,7.97
2023-07-02T03:50:05.389Z,9.15
2023-07-02T03:52:32.003Z,8.20
2023-07-02T03:54:59.929Z,10.10
2023-07-02T03:57:26.492Z,6.50
2023-07-02T03:59:54.071Z,9.82
2023-07-02T04:02:20.691Z,9.45
2023-07-02T04:04:47.333Z,10.43
2023-07-02T04:07:13.941Z,11.02
2023-07-02T04:09:40.596Z,10.68
2023-07-02T04:12:09.213Z,9.32
2023-07-02T04:14:35.808Z,7.50
2023-07-02T04:17:03.051Z,9.00
2023-07-02T04:19:29.666Z,12.07
2023-07-02T04:21:56.234Z,10.30
2023-07-02T04:24:23.348Z,11.27
2023-07-02T04:27:37.173Z,7.35
2023-07-02T04:29:38.496Z,11.35
2023-07-02T04:32:06.113Z,7.57
2023-07-02T04:34:32.742Z,8.52
2023-07-02T04:36:59.368Z,8.95
2023-07-02T04:39:25.967Z,10.50
2023-07-02T04:41:52.523Z,11.60
2023-07-02T04:44:19.653Z,10.13
2023-07-02T04:46:47.701Z,8.68
2023-07-02T04:49:14.379Z,9.95
2023-07-02T04:51:41.029Z,8.38
2023-07-02T04:54:07.635Z,8.00
2023-07-02T04:56:34.225Z,9.90
2023-07-02T04:59:00.779Z,8.98
2023-07-02T05:01:29.043Z,8.05
2023-07-02T05:03:57.055Z,8.98
2023-07-02T05:06:23.696Z,9.95
2023-07-02T05:08:50.351Z,10.35
2023-07-02T05:11:17.251Z,9.93
2023-07-02T05:13:43.818Z,8.85
2023-07-02T05:16:10.425Z,8.25
2023-07-02T05:18:37.381Z,8.32
2023-07-02T05:21:05.455Z,11.52
2023-07-02T05:23:32.071Z,10.55
2023-07-02T05:25:58.667Z,11.25
2023-07-02T05:28:25.238Z,10.05
2023-07-02T05:30:51.911Z,9.52
2023-07-02T05:33:20.076Z,7.10
2023-07-02T05:35:46.681Z,11.18
2023-07-02T05:38:14.640Z,7.82
2023-07-02T05:40:41.295Z,9.07
2023-07-02T05:43:07.905Z,10.93
2023-07-02T05:45:34.495Z,8.27
2023-07-02T05:48:01.140Z,8.43
2023-07-02T05:50:27.835Z,9.40
2023-07-02T05:52:54.441Z,7.45
2023-07-02T05:55:22.450Z,12.23
2023-07-02T05:57:49.064Z,7.53
2023-07-02T06:00:16.551Z,8.60
2023-07-02T06:02:47.630Z,10.15
2023-07-02T06:05:14.318Z,9.90
2023-07-02T06:07:40.973Z,10.10
2023-07-02T06:10:07.994Z,9.07
2023-07-02T06:12:35.991Z,11.60
2023-07-02T06:15:03.726Z,7.88
2023-07-02T06:17:30.353Z,7.88
2023-07-02T06:19:56.996Z,6.90
2023-07-02T06:22:24.009Z,11.75
2023-07-02T06:24:50.597Z,9.48
2023-07-02T06:27:17.280Z,10.18
2023-07-02T06:29:45.204Z,7.55
2023-07-02T06:32:11.795Z,8.38
2023-07-02T06:34:38.413Z,7.95
2023-07-02T06:37:05.475Z,10.85
2023-07-02T06:39:32.122Z,6.60
2023-07-02T06:41:58.717Z,7.25
2023-07-02T06:44:29.638Z,8.10
2023-07-02T06:46:57.634Z,8.52
2023-07-02T06:49:24.237Z,6.68
2023-07-02T06:51:50.789Z,6.78
2023-07-02T06:54:17.348Z,7.97
2023-07-02T06:56:43.951Z,5.53
2023-07-02T06:59:10.560Z,5.53
2023-07-02T07:01:37.121Z,4.63
2023-07-02T07:04:05.208Z,5.38
2023-07-02T07:06:31.858Z,7.63
2023-07-02T07:08:58.408Z,5.65
2023-07-02T07:11:24.974Z,4.75
2023-07-02T07:13:51.540Z,4.43
2023-07-02T07:16:18.760Z,7.47
2023-07-02T07:18:45.431Z,4.78
2023-07-02T07:21:13.445Z,8.50
2023-07-02T07:23:40.275Z,6.70
2023-07-02T07:26:07.037Z,5.80
2023-07-02T07:28:33.691Z,7.80
2023-07-02T07:31:00.479Z,5.97
2023-07-02T07:33:27.036Z,4.57
2023-07-02T07:35:53.899Z,7.88
2023-07-02T07:38:21.844Z,4.90
2023-07-02T07:40:48.888Z,5.72
2023-07-02T07:43:15.779Z,5.07
2023-07-02T07:45:42.466Z,5.88
2023-07-02T07:48:09.124Z,5.03
2023-07-02T07:50:35.799Z,4.75
2023-07-02T07:53:02.534Z,5.97
2023-07-02T07:55:30.555Z,3.88
2023-07-02T07:57:57.206Z,6.80
2023-07-02T08:00:23.825Z,4.75
2023-07-02T08:02:50.645Z,4.53
2023-07-02T08:05:17.308Z,5.60
2023-07-02T08:07:43.867Z,4.45
2023-07-02T08:10:11.181Z,3.28
2023-07-02T08:12:39.160Z,4.20
2023-07-02T08:15:07.069Z,3.33
2023-07-02T08:17:33.654Z,4.53
2023-07-02T08:20:00.243Z,5.60
2023-07-02T08:22:26.871Z,5.05
2023-07-02T08:24:53.419Z,3.92
2023-07-02T08:27:20.001Z,4.32
2023-07-02T08:29:48.266Z,4.55
2023-07-02T08:32:15.072Z,5.00
2023-07-02T08:34:41.795Z,3.35
2023-07-02T08:37:08.368Z,3.17
2023-07-02T08:39:35.168Z,4.75
2023-07-02T08:42:01.723Z,3.97
2023-07-02T08:44:28.320Z,3.92
2023-07-02T08:46:56.580Z,5.30
2023-07-02T08:49:23.589Z,3.72
2023-07-02T08:51:50.184Z,3.92
2023-07-02T08:54:18.445Z,4.03
2023-07-02T08:56:45.480Z,3.65
2023-07-02T08:59:12.137Z,3.47
2023-07-02T09:01:48.761Z,2.40
2023-07-02T09:04:20.835Z,3.65
2023-07-02T09:06:48.479Z,2.35
2023-07-02T09:09:15.152Z,2.88
2023-07-02T09:11:48.228Z,3.60
2023-07-02T09:14:25.142Z,2.97
2023-07-02T09:17:02.642Z,2.15
2023-07-02T09:19:31.150Z,2.95
2023-07-02T09:21:59.256Z,3.85
2023-07-02T09:24:26.242Z,2.67
2023-07-02T09:26:54.391Z,3.38
2023-07-02T09:29:23.583Z,3.37
2023-07-02T09:32:07.901Z,4.72
2023-07-02T09:34:38.749Z,3.00
2023-07-02T09:37:06.771Z,3.55
2023-07-02T09:39:34.566Z,3.88
2023-07-02T09:42:03.115Z,2.88
2023-07-02T09:44:30.834Z,4.03
2023-07-02T09:47:02.715Z,2.40
2023-07-02T09:49:33.113Z,3.83
2023-07-02T09:52:01.960Z,4.40
2023-07-02T09:54:28.828Z,3.90
2023-07-02T09:56:56.229Z,3.42
2023-07-02T09:59:22.838Z,3.97
2023-07-02T10:01:49.504Z,3.83
2023-07-02T10:04:16.856Z,4.82
2023-07-02T10:06:47.913Z,4.78
2023-07-02T10:09:16.294Z,3.75
2023-07-02T10:11:43.148Z,3.95
2023-07-02T10:14:09.784Z,2.95
2023-07-02T10:16:50.074Z,3.17
2023-07-02T10:19:16.752Z,3.55
2023-07-02T10:21:43.606Z,3.72
2023-07-02T10:24:12.025Z,4.00
2023-07-02T10:26:39.959Z,2.90
2023-07-02T10:29:07.602Z,2.85
2023-07-02T10:31:34.209Z,2.53
2023-07-02T10:34:00.807Z,2.85
2023-07-02T10:36:27.689Z,3.10
2023-07-02T10:38:54.303Z,3.38
2023-07-02T10:41:25.620Z,1.90
2023-07-02T10:43:54.012Z,2.50
2023-07-02T10:46:20.932Z,2.92
2023-07-02T10:48:54.420Z,1.83
2023-07-02T10:51:21.051Z,2.67
2023-07-02T10:53:49.324Z,2.00
2023-07-02T10:56:17.717Z,2.63
2023-07-02T10:58:44.366Z,2.67
2023-07-02T11:01:12.784Z,2.47
2023-07-02T11:03:39.501Z,2.80
2023-07-02T11:06:06.251Z,2.60
2023-07-02T11:08:36.611Z,1.92
2023-07-02T11:11:07.602Z,3.58
2023-07-02T11:13:34.280Z,1.92
2023-07-02T11:16:00.891Z,3.50
2023-07-02T11:18:31.826Z,2.55
2023-07-02T11:20:58.610Z,2.30
2023-07-02T11:23:26.318Z,3.13
2023-07-02T11:25:57.354Z,3.38
2023-07-02T11:28:24.327Z,2.28
2023-07-02T11:30:51.044Z,1.50
2023-07-02T11:33:17.625Z,3.03
2023-07-02T11:35:45.655Z,1.50
2023-07-02T11:38:12.246Z,3.13
2023-07-02T11:40:38.922Z,3.65
2023-07-02T11:43:07.380Z,2.67
2023-07-02T11:45:33.984Z,2.72
2023-07-02T11:48:00.625Z,3.05
2023-07-02T11:50:27.870Z,2.33
2023-07-02T11:52:55.875Z,2.55
2023-07-02T11:55:22.719Z,2.67
2023-07-02T11:57:49.255Z,2.22
2023-07-02T12:00:15.999Z,2.67
2023-07-02T12:02:43.475Z,3.40
2023-07-02T12:05:12.368Z,1.75
2023-07-02T12:07:40.105Z,3.47
2023-07-02T12:10:09.222Z,3.17
2023-07-02T12:12:36.001Z,3.33
2023-07-02T12:15:02.695Z,3.38
2023-07-02T12:17:29.287Z,3.70
2023-07-02T12:19:55.892Z,2.50
2023-07-02T12:22:22.448Z,3.08
2023-07-02T12:24:48.999Z,3.53
2023-07-02T12:27:16.991Z,3.50
2023-07-02T12:29:43.581Z,3.88
2023-07-02T12:32:10.213Z,3.25
2023-07-02T12:34:36.852Z,2.50
2023-07-02T12:37:03.756Z,2.80
2023-07-02T12:39:30.311Z,4.20
2023-07-02T12:41:56.880Z,3.92
2023-07-02T12:44:24.822Z,3.88
2023-07-02T12:46:51.532Z,3.35
2023-07-02T12:49:18.219Z,2.17
2023-07-02T12:51:44.827Z,2.20
2023-07-02T12:54:11.445Z,2.65
2023-07-02T12:56:38.076Z,2.47
2023-07-02T12:59:04.715Z,3.50
2023-07-02T13:01:33.093Z,2.67
2023-07-02T13:03:59.930Z,2.80
2023-07-02T13:06:26.579Z,2.92
2023-07-02T13:08:53.187Z,2.95
2023-07-02T13:11:19.910Z,2.42
2023-07-02T13:13:46.514Z,3.40
2023-07-02T13:16:13.109Z,2.67
2023-07-02T13:18:41.085Z,1.95
2023-07-02T13:21:07.688Z,1.83
2023-07-02T13:23:34.257Z,2.10
2023-07-02T13:26:00.855Z,2.65
2023-07-02T13:28:27.464Z,2.33
2023-07-02T13:30:54.075Z,3.00
2023-07-02T13:33:20.756Z,1.45
2023-07-02T13:35:49.053Z,2.00
2023-07-02T13:38:15.942Z,1.55
2023-07-02T13:40:42.565Z,3.60
2023-07-02T13:43:09.147Z,2.47
2023-07-02T13:45:35.735Z,2.80
2023-07-02T13:48:02.379Z,2.85
2023-07-02T13:50:28.988Z,4.05
2023-07-02T13:52:56.982Z,4.05
2023-07-02T13:55:23.573Z,4.40
2023-07-02T13:57:50.161Z,2.63
2023-07-02T14:00:18.660Z,3.00
2023-07-02T14:02:45.340Z,3.22
2023-07-02T14:05:11.980Z,2.30
2023-07-02T14:07:38.584Z,3.05
2023-07-02T14:10:06.276Z,3.30
2023-07-02T14:12:32.921Z,3.45
2023-07-02T14:14:59.569Z,3.60
2023-07-02T14:17:27.525Z,3.03
2023-07-02T14:19:54.164Z,3.65
2023-07-02T14:22:20.850Z,4.55
2023-07-02T14:24:47.470Z,4.22
2023-07-02T14:27:14.121Z,3.10
2023-07-02T14:29:40.818Z,3.10
2023-07-02T14:32:08.489Z,3.97
2023-07-02T14:34:36.922Z,3.60
2023-07-02T14:37:03.954Z,4.07
2023-07-02T14:39:30.594Z,2.97
2023-07-02T14:41:57.331Z,4.22
2023-07-02T14:44:24.013Z,4.05
2023-07-02T14:46:50.762Z,3.95
2023-07-02T14:49:17.529Z,5.00
2023-07-02T14:51:45.527Z,2.97
2023-07-02T14:54:13.074Z,7.88
2023-07-02T14:56:39.702Z,4.03
2023-07-02T14:59:06.414Z,5.13
2023-07-02T15:01:33.028Z,4.20
2023-07-02T15:03:59.906Z,3.30
2023-07-02T15:06:29.187Z,5.35
2023-07-02T15:08:58.142Z,3.42
2023-07-02T15:11:24.709Z,4.75
2023-07-02T15:13:51.304Z,4.10
2023-07-02T15:16:26.610Z,4.53
2023-07-02T15:18:53.216Z,3.70
2023-07-02T15:21:19.944Z,3.22
2023-07-02T15:23:46.538Z,3.28
2023-07-02T15:26:14.493Z,4.43
2023-07-02T15:28:41.071Z,5.88
2023-07-02T15:31:09.879Z,5.30
2023-07-02T15:33:36.894Z,3.83
2023-07-02T15:36:07.721Z,5.35
2023-07-02T15:38:34.333Z,4.47
2023-07-02T15:41:09.489Z,4.63
2023-07-02T15:43:37.899Z,4.10
2023-07-02T15:46:05.003Z,5.70
2023-07-02T15:48:31.833Z,3.33
2023-07-02T15:50:58.505Z,3.08
2023-07-02T15:53:26.234Z,4.50
2023-07-02T15:55:56.199Z,4.53
2023-07-02T15:58:23.230Z,2.92
2023-07-02T16:00:51.228Z,5.40
2023-07-02T16:03:18.116Z,5.95
2023-07-02T16:05:45.052Z,5.45
2023-07-02T16:08:12.490Z,4.50
2023-07-02T16:10:41.895Z,4.03
2023-07-02T16:13:08.589Z,3.53
2023-07-02T16:15:38.110Z,5.45
2023-07-02T16:18:06.732Z,5.18
2023-07-02T16:20:33.374Z,4.78
2023-07-02T16:23:00.156Z,4.53
2023-07-02T16:25:26.737Z,3.42
2023-07-02T16:27:53.304Z,4.15
2023-07-02T16:30:20.301Z,5.30
2023-07-02T16:32:46.994Z,3.67
2023-07-02T16:35:15.267Z,4.88
2023-07-02T16:37:41.859Z,4.17
2023-07-02T16:40:09.247Z,3.80
2023-07-02T16:42:35.858Z,5.28
2023-07-02T16:45:02.466Z,4.85
2023-07-02T16:47:29.111Z,4.95
2023-07-02T16:50:00.337Z,4.72
2023-07-02T16:52:29.597Z,3.42
2023-07-02T16:54:56.190Z,3.22
2023-07-02T16:57:22.842Z,4.00
2023-07-02T16:59:52.124Z,4.60
2023-07-02T17:02:19.492Z,4.72
2023-07-02T17:04:46.280Z,2.72
2023-07-02T17:07:12.965Z,3.38
2023-07-02T17:09:41.125Z,5.22
2023-07-02T17:12:10.657Z,4.87
2023-07-02T17:14:38.929Z,3.70
2023-07-02T17:17:08.443Z,4.28
2023-07-02T17:19:36.674Z,4.53
2023-07-02T17:22:05.234Z,5.80
2023-07-02T17:24:34.408Z,2.70
2023-07-02T17:27:03.261Z,2.90
2023-07-02T17:29:30.419Z,4.82
2023-07-02T17:31:58.230Z,3.63
2023-07-02T17:34:26.575Z,2.83
2023-07-02T17:36:55.236Z,5.22
2023-07-02T17:39:22.155Z,2.83
2023-07-02T17:41:50.179Z,3.88
2023-07-02T17:44:19.632Z,6.00
2023-07-02T17:46:46.288Z,5.93
2023-07-02T17:49:12.939Z,3.13
2023-07-02T17:51:39.560Z,3.65
2023-07-02T17:54:06.552Z,4.68
2023-07-02T17:56:33.571Z,5.10
2023-07-02T17:59:00.279Z,4.03
2023-07-02T18:01:28.562Z,3.25
2023-07-02T18:03:55.439Z,3.55
2023-07-02T18:06:23.662Z,4.72
2023-07-02T18:08:50.414Z,3.17
2023-07-02T18:11:17.085Z,3.35
2023-07-02T18:13:46.829Z,3.97
2023-07-02T18:16:14.741Z,3.92
2023-07-02T18:18:42.689Z,2.53
2023-07-02T18:21:09.355Z,3.20
2023-07-02T18:23:36.029Z,4.80
2023-07-02T18:26:02.933Z,4.53
2023-07-02T18:28:29.677Z,4.28
2023-07-02T18:30:56.346Z,2.80
2023-07-02T18:33:23.424Z,3.05
2023-07-02T18:35:51.693Z,4.20
2023-07-02T18:38:18.969Z,5.40
2023-07-02T18:40:45.813Z,3.80
2023-07-02T18:43:12.884Z,5.13
2023-07-02T18:45:39.492Z,6.40
2023-07-02T18:48:06.761Z,3.28
2023-07-02T18:50:33.334Z,6.20
2023-07-02T18:53:01.668Z,3.50
2023-07-02T18:55:28.270Z,2.92
2023-07-02T18:57:54.816Z,3.97
2023-07-02T19:00:21.399Z,3.33
2023-07-02T19:02:49.191Z,4.25
2023-07-02T19:05:16.296Z,4.13
2023-07-02T19:07:42.905Z,3.13
2023-07-02T19:10:11.703Z,3.55
2023-07-02T19:12:38.352Z,4.97
2023-07-02T19:15:06.005Z,5.55
2023-07-02T19:17:32.614Z,4.82
2023-07-02T19:19:59.216Z,3.40
2023-07-02T19:22:26.088Z,2.53
2023-07-02T19:24:52.805Z,4.53
2023-07-02T19:27:20.708Z,5.68
2023-07-02T19:29:49.365Z,4.72
2023-07-02T19:32:15.946Z,4.32
2023-07-02T19:34:42.546Z,4.15
2023-07-02T19:37:09.130Z,5.28
2023-07-02T19:39:35.732Z,4.63
2023-07-02T19:42:02.401Z,3.67
2023-07-02T19:44:30.323Z,3.17
2023-07-02T19:46:56.893Z,6.03
2023-07-02T19:49:23.563Z,4.65
2023-07-02T19:51:50.251Z,4.85
2023-07-02T19:54:17.784Z,5.75
2023-07-02T19:56:44.668Z,4.47
2023-07-02T19:59:11.266Z,3.15
2023-07-02T20:01:39.184Z,3.92
2023-07-02T20:04:07.993Z,4.07
2023-07-02T20:06:34.867Z,4.88
2023-07-02T20:09:01.779Z,4.60
2023-07-02T20:11:28.354Z,6.70
2023-07-02T20:13:54.888Z,3.85
2023-07-02T20:16:21.479Z,4.15
2023-07-02T20:18:49.381Z,3.78
2023-07-02T20:21:15.938Z,4.20
2023-07-02T20:23:42.898Z,4.55
2023-07-02T20:26:14.071Z,5.10
2023-07-02T20:28:40.643Z,3.45
2023-07-02T20:31:07.521Z,6.18
2023-07-02T20:33:34.295Z,2.83
2023-07-02T20:36:02.237Z,3.75
2023-07-02T20:38:28.863Z,4.35
2023-07-02T20:40:58.660Z,5.35
2023-07-02T20:43:25.349Z,3.97
2023-07-02T20:45:52.032Z,5.00
2023-07-02T20:48:18.681Z,4.47
2023-07-02T20:50:45.259Z,3.72
2023-07-02T20:53:13.170Z,4.45
2023-07-02T20:55:39.788Z,3.13
2023-07-02T20:58:06.393Z,3.85
2023-07-02T21:00:32.972Z,3.90
2023-07-02T21:02:59.671Z,3.50
2023-07-02T21:05:26.288Z,5.28
2023-07-02T21:07:52.857Z,3.53
2023-07-02T21:10:20.728Z,5.05
2023-07-02T21:12:47.313Z,4.00
2023-07-02T21:15:14.015Z,5.57
2023-07-02T21:17:40.650Z,6.88
2023-07-02T21:20:08.070Z,3.85
2023-07-02T21:22:34.651Z,4.38
2023-07-02T21:25:01.459Z,3.90
2023-07-02T21:27:29.373Z,5.05
2023-07-02T21:29:55.937Z,6.72
2023-07-02T21:32:22.696Z,5.60
2023-07-02T21:34:49.311Z,4.20
2023-07-02T21:37:15.861Z,5.60
2023-07-02T21:39:42.425Z,3.83
2023-07-02T21:42:09.094Z,4.55
2023-07-02T21:44:37.007Z,7.60
2023-07-02T21:47:03.917Z,4.90
2023-07-02T21:49:30.496Z,3.55
2023-07-02T21:51:57.144Z,4.25
2023-07-02T21:54:23.754Z,4.15
2023-07-02T21:56:50.314Z,5.35
2023-07-02T21:59:25.676Z,4.70
2023-07-02T22:01:55.233Z,4.53
2023-07-02T22:04:21.917Z,5.18
2023-07-02T22:06:48.593Z,5.30
2023-07-02T22:09:15.244Z,4.72
2023-07-02T22:11:41.818Z,4.72
2023-07-02T22:14:08.369Z,4.50
2023-07-02T22:16:34.944Z,6.13
2023-07-02T22:19:02.879Z,4.88
2023-07-02T22:21:29.438Z,3.78
2023-07-02T22:23:56.011Z,5.65
2023-07-02T22:26:22.688Z,5.05
2023-07-02T22:28:49.273Z,6.18
2023-07-02T22:31:15.922Z,4.93
2023-07-02T22:33:42.509Z,6.55
2023-07-02T22:36:10.465Z,5.35
2023-07-02T22:38:37.078Z,4.63
2023-07-02T22:41:03.633Z,4.63
2023-07-02T22:43:30.204Z,5.35
2023-07-02T22:45:56.811Z,3.80
2023-07-02T22:48:23.488Z,4.70
2023-07-02T22:50:50.078Z,6.47
2023-07-02T22:53:17.987Z,7.18
2023-07-02T22:55:44.585Z,7.00
2023-07-02T22:58:11.155Z,5.88
2023-07-02T23:00:38.588Z,3.78
2023-07-02T23:03:05.304Z,7.50
2023-07-02T23:05:32.105Z,7.25
2023-07-02T23:07:58.889Z,6.18
2023-07-02T23:10:26.847Z,5.75
2023-07-02T23:12:53.447Z,5.60
2023-07-02T23:15:21.145Z,5.63
2023-07-02T23:17:49.392Z,5.55
2023-07-02T23:20:16.969Z,4.77
2023-07-02T23:22:43.889Z,4.88
2023-07-02T23:25:12.535Z,5.28
2023-07-02T23:27:40.912Z,6.45
2023-07-02T23:30:10.046Z,7.43
2023-07-02T23:35:03.242Z,4.90
2023-07-02T23:37:29.811Z,5.70
2023-07-02T23:39:56.353Z,4.93
2023-07-02T23:42:22.926Z,6.15
2023-07-02T23:44:50.967Z,5.50
2023-07-02T23:47:17.541Z,6.15
2023-07-02T23:49:44.135Z,8.10
2023-07-02T23:52:10.724Z,5.53
2023-07-02T23:54:37.292Z,7.45
2023-07-02T23:57:04.044Z,5.03
2023-07-02T23:59:30.581Z,9.65
